Time;durP1;ratioP1;P1;durP2;ratioP2;P2;SDS_P1;SDS_P2;PMS_P1;PMS_P2;Temp;Humidity;BMP_temperature;BMP_pressure;BME280_temperature;BME280_humidity;BME280_pressure;Samples;Min_cycle;Max_cycle;Signal;HPM_P1;HPM_P2
2023/09/28 00:00:55;;;;;;;15.52;11.75;;;;;;;-144.32;100.00;68061.97;10207295;29;20086;-76
2023/09/28 00:05:55;;;;;;;17.10;12.52;;;;;;;-144.32;100.00;68061.97;10210427;29;20043;-76
2023/09/28 00:10:56;;;;;;;14.18;11.35;;;;;;;-144.32;100.00;68061.97;10199728;28;20048;-76
2023/09/28 00:15:57;;;;;;;15.73;11.40;;;;;;;-144.32;100.00;68061.97;10194370;29;20084;-77
2023/09/28 00:20:58;;;;;;;19.05;12.57;;;;;;;-144.32;100.00;68061.97;10217213;28;20050;-78
2023/09/28 00:25:58;;;;;;;14.80;10.90;;;;;;;-144.32;100.00;68061.97;10211750;28;20040;-79
2023/09/28 00:30:59;;;;;;;16.10;12.73;;;;;;;-144.32;100.00;68061.97;10209743;29;20050;-79
2023/09/28 00:36:00;;;;;;;17.02;12.48;;;;;;;-144.32;100.00;68061.97;10206440;29;20043;-77
2023/09/28 00:41:01;;;;;;;15.52;11.93;;;;;;;-144.32;100.00;68061.97;10187413;29;20782;-78
2023/09/28 00:46:03;;;;;;;16.73;11.70;;;;;;;-144.32;100.00;68061.97;10180871;29;20040;-78
2023/09/28 00:51:03;;;;;;;16.37;12.10;;;;;;;-144.32;100.00;68061.97;10199647;28;20055;-78
2023/09/28 00:56:07;;;;;;;17.77;13.30;;;;;;;-144.32;100.00;68061.97;10198107;29;20059;-76
2023/09/28 01:01:10;;;;;;;16.00;12.32;;;;;;;-144.32;100.00;68061.97;10215913;29;20051;-77
2023/09/28 01:06:10;;;;;;;14.50;11.70;;;;;;;-144.32;100.00;68061.97;10209736;28;20764;-78
2023/09/28 01:11:11;;;;;;;16.40;12.48;;;;;;;-144.32;100.00;68061.97;10187383;28;20058;-75
2023/09/28 01:16:13;;;;;;;15.02;11.82;;;;;;;-144.32;100.00;68061.97;10195307;29;20043;-75
2023/09/28 01:21:14;;;;;;;15.50;11.55;;;;;;;-144.32;100.00;68061.97;10213737;28;20582;-77
2023/09/28 01:26:15;;;;;;;14.82;11.50;;;;;;;-144.32;100.00;68061.97;10207771;29;20044;-77
2023/09/28 01:31:16;;;;;;;16.08;12.13;;;;;;;-144.32;100.00;68061.97;10203226;29;20131;-76
2023/09/28 01:36:16;;;;;;;21.15;12.88;;;;;;;-144.32;100.00;68061.97;10185951;28;20133;-78
2023/09/28 01:41:17;;;;;;;17.50;13.13;;;;;;;-144.32;100.00;68061.97;10208639;29;20051;-77
2023/09/28 01:46:17;;;;;;;17.60;13.85;;;;;;;-144.32;100.00;68061.97;10187154;29;20051;-77
2023/09/28 01:51:18;;;;;;;16.83;13.10;;;;;;;-144.32;100.00;68061.97;10201138;29;20047;-76
2023/09/28 01:56:18;;;;;;;18.20;13.30;;;;;;;-144.32;100.00;68061.97;10205437;29;20500;-75
2023/09/28 02:01:26;;;;;;;17.73;13.85;;;;;;;-144.32;100.00;68061.97;10189295;28;21038;-76
2023/09/28 02:06:28;;;;;;;18.05;12.52;;;;;;;-144.32;100.00;68061.97;10188939;28;20044;-75
2023/09/28 02:11:28;;;;;;;16.60;12.90;;;;;;;-144.32;100.00;68061.97;10207738;29;20713;-75
2023/09/28 02:16:29;;;;;;;17.42;13.15;;;;;;;-144.32;100.00;68061.97;10207784;29;20769;-75
2023/09/28 02:21:29;;;;;;;17.42;13.13;;;;;;;-144.32;100.00;68061.97;10200979;29;20449;-76
2023/09/28 02:26:30;;;;;;;17.00;13.25;;;;;;;-144.32;100.00;68061.97;10199430;29;20224;-75
2023/09/28 02:31:31;;;;;;;20.50;14.02;;;;;;;-144.32;100.00;68061.97;10205277;29;20051;-76
2023/09/28 02:36:32;;;;;;;18.67;14.10;;;;;;;-144.32;100.00;68061.97;10211534;28;20488;-76
2023/09/28 02:41:33;;;;;;;18.88;14.35;;;;;;;-144.32;100.00;68061.97;10221768;28;20054;-75
2023/09/28 02:46:34;;;;;;;17.13;13.15;;;;;;;-144.32;100.00;68061.97;10216992;28;20407;-75
2023/09/28 02:51:34;;;;;;;26.50;15.70;;;;;;;-144.32;100.00;68061.97;10214888;28;20043;-75
2023/09/28 02:56:35;;;;;;;20.42;14.48;;;;;;;-144.32;100.00;68061.97;10216010;29;20102;-76
2023/09/28 03:01:36;;;;;;;19.58;14.35;;;;;;;-144.32;100.00;68061.97;10213936;28;20646;-75
2023/09/28 03:06:40;;;;;;;17.48;12.93;;;;;;;-144.32;100.00;68061.97;10195385;28;20059;-76
2023/09/28 03:11:40;;;;;;;22.23;14.85;;;;;;;-144.32;100.00;68061.97;10205293;28;20063;-77
2023/09/28 03:16:41;;;;;;;19.83;14.32;;;;;;;-144.32;100.00;68061.97;10211747;28;20048;-77
2023/09/28 03:21:44;;;;;;;20.23;14.98;;;;;;;-144.32;100.00;68061.97;10210656;29;20048;-75
2023/09/28 03:26:44;;;;;;;19.15;14.80;;;;;;;-144.32;100.00;68061.97;10206754;28;20044;-75
2023/09/28 03:31:45;;;;;;;17.77;13.40;;;;;;;-144.32;100.00;68061.97;10206749;29;20058;-78
2023/09/28 03:36:45;;;;;;;23.75;15.40;;;;;;;-144.32;100.00;68061.97;10207851;29;20075;-77
2023/09/28 03:41:46;;;;;;;18.10;13.93;;;;;;;-144.32;100.00;68061.97;10206149;29;20061;-75
2023/09/28 03:46:46;;;;;;;20.98;14.85;;;;;;;-144.32;100.00;68061.97;10189537;29;20058;-76
2023/09/28 03:51:47;;;;;;;20.75;14.73;;;;;;;-144.32;100.00;68061.97;10198774;29;20512;-77
2023/09/28 03:56:47;;;;;;;21.17;15.18;;;;;;;-144.32;100.00;68061.97;10208698;29;20134;-77
2023/09/28 04:01:48;;;;;;;21.02;14.55;;;;;;;-144.32;100.00;68061.97;10176340;29;20089;-76
2023/09/28 04:06:50;;;;;;;19.30;13.75;;;;;;;-144.32;100.00;68061.97;10200488;29;20452;-77
2023/09/28 04:11:50;;;;;;;18.65;14.50;;;;;;;-144.32;100.00;68061.97;10206487;28;20571;-75
2023/09/28 04:16:51;;;;;;;19.42;14.60;;;;;;;-144.32;100.00;68061.97;10211661;29;20047;-76
2023/09/28 04:21:52;;;;;;;22.02;14.73;;;;;;;-144.32;100.00;68061.97;10189282;28;20102;-78
2023/09/28 04:26:57;;;;;;;21.58;15.48;;;;;;;-144.32;100.00;68061.97;10205610;28;20046;-78
2023/09/28 04:31:58;;;;;;;21.48;14.00;;;;;;;-144.32;100.00;68061.97;10196564;29;20092;-77
2023/09/28 04:36:59;;;;;;;20.23;14.43;;;;;;;-144.32;100.00;68061.97;10208384;28;20054;-81
2023/09/28 04:41:59;;;;;;;21.65;15.57;;;;;;;-144.32;100.00;68061.97;10191438;29;20524;-79
2023/09/28 04:47:00;;;;;;;20.95;15.95;;;;;;;-144.32;100.00;68061.97;10187259;29;20048;-78
2023/09/28 04:52:01;;;;;;;19.73;14.20;;;;;;;-144.32;100.00;68061.97;10205499;29;20084;-78
2023/09/28 04:57:01;;;;;;;20.48;14.70;;;;;;;-144.32;100.00;68061.97;10212041;29;20157;-78
2023/09/28 05:02:04;;;;;;;20.90;15.30;;;;;;;-144.32;100.00;68061.97;10204854;29;20058;-79
2023/09/28 05:07:04;;;;;;;28.27;16.00;;;;;;;-144.32;100.00;68061.97;10200910;29;20489;-79
2023/09/28 05:12:05;;;;;;;20.05;14.80;;;;;;;-144.32;100.00;68061.97;10208756;28;20059;-77
2023/09/28 05:17:06;;;;;;;22.73;15.18;;;;;;;-144.32;100.00;68061.97;10184794;29;20048;-77
2023/09/28 05:22:07;;;;;;;22.60;15.77;;;;;;;-144.32;100.00;68061.97;10203553;29;20079;-78
2023/09/28 05:27:09;;;;;;;26.33;15.93;;;;;;;-144.32;100.00;68061.97;10196149;28;20055;-78
2023/09/28 05:32:10;;;;;;;23.13;16.10;;;;;;;-144.32;100.00;68061.97;10202014;29;20035;-77
2023/09/28 05:37:10;;;;;;;21.38;15.15;;;;;;;-144.32;100.00;68061.97;10207199;28;20059;-78
2023/09/28 05:42:11;;;;;;;25.00;17.42;;;;;;;-144.32;100.00;68061.97;10209083;29;20051;-79
2023/09/28 05:47:12;;;;;;;27.00;18.45;;;;;;;-144.32;100.00;68061.97;10211933;29;20059;-79
2023/09/28 05:52:12;;;;;;;25.10;17.73;;;;;;;-144.32;100.00;68061.97;10224177;28;20062;-79
2023/09/28 05:57:13;;;;;;;22.70;16.00;;;;;;;-144.32;100.00;68061.97;10226118;28;20047;-78
2023/09/28 06:02:14;;;;;;;23.58;16.30;;;;;;;-144.32;100.00;68061.97;10215495;29;20047;-79
2023/09/28 06:07:15;;;;;;;24.50;17.20;;;;;;;-144.32;100.00;68061.97;10220583;28;20788;-81
2023/09/28 06:12:16;;;;;;;24.83;18.45;;;;;;;-144.32;100.00;68061.97;10214147;29;20043;-79
2023/09/28 06:17:17;;;;;;;23.52;16.60;;;;;;;-144.32;100.00;68061.97;10231608;29;20051;-80
2023/09/28 06:22:17;;;;;;;19.75;14.15;;;;;;;-144.32;100.00;68061.97;10221216;28;20051;-80
2023/09/28 06:27:18;;;;;;;22.33;16.50;;;;;;;-144.32;100.00;68061.97;10216725;29;20052;-79
2023/09/28 06:32:21;;;;;;;21.67;16.08;;;;;;;-144.32;100.00;68061.97;10215509;29;20071;-77
2023/09/28 06:37:21;;;;;;;22.77;16.10;;;;;;;-144.32;100.00;68061.97;10206378;29;20076;-76
2023/09/28 06:42:22;;;;;;;25.88;17.80;;;;;;;-144.32;100.00;68061.97;10185018;29;20062;-77
2023/09/28 06:47:22;;;;;;;24.17;18.05;;;;;;;-144.32;100.00;68061.97;10204815;29;20090;-77
2023/09/28 06:52:23;;;;;;;21.98;16.98;;;;;;;-144.32;100.00;68061.97;10207392;28;20889;-78
2023/09/28 06:57:24;;;;;;;26.35;18.45;;;;;;;-144.32;100.00;68061.97;10198979;29;20780;-77
2023/09/28 07:02:24;;;;;;;24.13;17.42;;;;;;;-144.32;100.00;68061.97;10202682;29;20063;-75
2023/09/28 07:07:29;;;;;;;24.67;17.80;;;;;;;-144.32;100.00;68061.97;10204353;28;20563;-75
2023/09/28 07:12:29;;;;;;;23.13;16.52;;;;;;;-144.32;100.00;68061.97;10201504;29;20047;-77
2023/09/28 07:17:30;;;;;;;29.85;19.67;;;;;;;-144.32;100.00;68061.97;10200992;29;20143;-76
2023/09/28 07:22:30;;;;;;;27.05;19.80;;;;;;;-144.32;100.00;68061.97;10191434;28;20055;-75
2023/09/28 07:27:33;;;;;;;22.58;16.95;;;;;;;-144.32;100.00;68061.97;10211121;29;20071;-76
2023/09/28 07:32:35;;;;;;;27.67;19.55;;;;;;;-144.32;100.00;68061.97;10214615;29;20055;-74
2023/09/28 07:37:35;;;;;;;23.60;17.17;;;;;;;-144.32;100.00;68061.97;10208631;28;20051;-75
2023/09/28 07:42:36;;;;;;;28.83;19.83;;;;;;;-144.32;100.00;68061.97;10192577;28;20043;-75
2023/09/28 07:47:38;;;;;;;27.77;20.55;;;;;;;-144.32;100.00;68061.97;10207046;29;20074;-75
2023/09/28 07:52:39;;;;;;;29.17;21.67;;;;;;;-144.32;100.00;68061.97;10204234;28;20043;-75
2023/09/28 07:57:40;;;;;;;27.17;19.85;;;;;;;-144.32;100.00;68061.97;10209071;28;20040;-76
2023/09/28 08:02:42;;;;;;;25.00;20.30;;;;;;;-144.32;100.00;68061.97;10206459;29;20047;-76
2023/09/28 08:07:42;;;;;;;31.55;21.13;;;;;;;-144.32;100.00;68061.97;10201035;29;20098;-76
2023/09/28 08:12:44;;;;;;;29.83;21.63;;;;;;;-144.32;100.00;68061.97;10203882;29;20118;-76
2023/09/28 08:17:47;;;;;;;32.65;23.48;;;;;;;-144.32;100.00;68061.97;10207769;28;20046;-76
2023/09/28 08:22:49;;;;;;;35.40;23.00;;;;;;;-144.32;100.00;68061.97;10200073;29;20163;-76
2023/09/28 08:27:49;;;;;;;28.50;20.20;;;;;;;-144.32;100.00;68061.97;10204393;29;20081;-76
2023/09/28 08:32:50;;;;;;;28.60;20.13;;;;;;;-144.32;100.00;68061.97;10179212;28;20054;-75
2023/09/28 08:37:51;;;;;;;30.75;19.63;;;;;;;-144.32;100.00;68061.97;10206062;28;20043;-76
2023/09/28 08:42:55;;;;;;;20.92;16.20;;;;;;;-144.32;100.00;68061.97;10201679;29;20035;-76
2023/09/28 08:47:57;;;;;;;25.33;17.45;;;;;;;-144.32;100.00;68061.97;10201046;29;20083;-77
2023/09/28 08:52:59;;;;;;;23.60;16.92;;;;;;;-144.32;100.00;68061.97;10202992;29;20146;-76
2023/09/28 08:58:02;;;;;;;20.20;14.93;;;;;;;-144.32;100.00;68061.97;10205226;29;20556;-77
2023/09/28 09:03:04;;;;;;;20.52;16.73;;;;;;;-144.32;100.00;68061.97;10202060;28;20051;-78
2023/09/28 09:08:05;;;;;;;;;;;;;;;-144.32;100.00;68061.97;10207629;28;20052;-76
2023/09/28 09:13:14;;;;;;;27.27;18.33;;;;;;;-144.32;100.00;68061.97;10200871;29;19930;-76
2023/09/28 09:18:19;;;;;;;21.42;16.95;;;;;;;-144.32;100.00;68061.97;10208697;29;20074;-76
2023/09/28 09:23:19;;;;;;;18.65;14.20;;;;;;;-144.32;100.00;68061.97;10204078;28;20044;-77
2023/09/28 09:28:32;;;;;;;22.75;16.13;;;;;;;-144.32;100.00;68061.97;10206328;28;20548;-77
2023/09/28 09:33:33;;;;;;;;;;;;;;;-144.32;100.00;68061.97;10206895;29;20481;-76
2023/09/28 09:38:33;;;;;;;18.67;13.70;;;;;;;-144.32;100.00;68061.97;10203174;28;19926;-77
2023/09/28 09:43:35;;;;;;;19.85;13.82;;;;;;;-144.32;100.00;68061.97;10205890;29;20050;-76
2023/09/28 09:48:41;;;;;;;17.98;14.07;;;;;;;-144.32;100.00;68061.97;10184242;28;20044;-78
2023/09/28 09:53:45;;;;;;;20.05;15.00;;;;;;;-144.32;100.00;68061.97;10207829;28;20094;-77
2023/09/28 09:58:49;;;;;;;14.73;12.60;;;;;;;-144.32;100.00;68061.97;10201320;29;20126;-78
2023/09/28 10:03:51;;;;;;;17.85;14.05;;;;;;;-144.32;100.00;68061.97;10185790;29;20158;-76
2023/09/28 10:08:53;;;;;;;17.00;13.13;;;;;;;-144.32;100.00;68061.97;10182631;29;20051;-77
2023/09/28 10:13:56;;;;;;;17.40;13.60;;;;;;;-144.32;100.00;68061.97;10204391;28;20448;-77
2023/09/28 10:18:58;;;;;;;12.52;10.57;;;;;;;-144.32;100.00;68061.97;10195790;28;20063;-76
2023/09/28 10:23:59;;;;;;;12.80;10.80;;;;;;;-144.32;100.00;68061.97;10202828;29;20162;-76
2023/09/28 10:29:10;;;;;;;15.25;11.15;;;;;;;-144.32;100.00;68061.97;10195899;29;20070;-78
2023/09/28 10:34:19;;;;;;;15.07;11.55;;;;;;;-144.32;100.00;68061.97;10199928;28;20047;-76
2023/09/28 10:39:20;;;;;;;14.45;11.93;;;;;;;-144.32;100.00;68061.97;10205265;28;20043;-77
2023/09/28 10:44:22;;;;;;;12.52;9.88;;;;;;;-144.32;100.00;68061.97;10197868;28;20252;-77
2023/09/28 10:49:24;;;;;;;10.07;8.77;;;;;;;-144.32;100.00;68061.97;10210639;28;20051;-78
2023/09/28 10:54:24;;;;;;;;;;;;;;;-144.32;100.00;68061.97;10211151;29;20040;-77
2023/09/28 10:59:25;;;;;;;10.87;8.17;;;;;;;-144.32;100.00;68061.97;10225763;29;20269;-79
2023/09/28 11:04:28;;;;;;;10.00;9.00;;;;;;;-144.32;100.00;68061.97;10219182;29;20299;-77
2023/09/28 11:09:29;;;;;;;10.98;7.88;;;;;;;-144.32;100.00;68061.97;10230853;28;20043;-79
2023/09/28 11:14:32;;;;;;;7.28;6.57;;;;;;;-144.32;100.00;68061.97;10209373;29;20043;-76
2023/09/28 11:19:35;;;;;;;8.75;7.25;;;;;;;-144.32;100.00;68061.97;10199264;29;20043;-78
2023/09/28 11:24:35;;;;;;;9.63;7.25;;;;;;;-144.32;100.00;68061.97;10207845;28;20059;-77
2023/09/28 11:29:39;;;;;;;8.05;7.00;;;;;;;-144.32;100.00;68061.97;10207203;29;20625;-77
2023/09/28 11:34:39;;;;;;;7.13;5.70;;;;;;;-144.32;100.00;68061.97;10204131;28;20063;-79
2023/09/28 11:39:41;;;;;;;8.32;7.47;;;;;;;-144.32;100.00;68061.97;10206842;28;20051;-77
2023/09/28 11:44:43;;;;;;;11.60;9.27;;;;;;;-144.32;100.00;68061.97;10203644;29;20099;-79
2023/09/28 11:49:43;;;;;;;6.15;5.47;;;;;;;-144.32;100.00;68061.97;10209007;29;20086;-80
2023/09/28 11:54:45;;;;;;;7.30;6.53;;;;;;;-144.32;100.00;68061.97;10212643;28;20076;-78
2023/09/28 11:59:45;;;;;;;6.00;5.40;;;;;;;-144.32;100.00;68061.97;10190733;28;20054;-79
2023/09/28 12:04:46;;;;;;;8.88;6.85;;;;;;;-144.32;100.00;68061.97;10184166;29;20651;-79
2023/09/28 12:09:46;;;;;;;6.38;5.40;;;;;;;-144.32;100.00;68061.97;10215445;28;20074;-81
2023/09/28 12:14:48;;;;;;;6.33;5.73;;;;;;;-144.32;100.00;68061.97;10214328;29;20053;-80
2023/09/28 12:19:48;;;;;;;6.20;5.03;;;;;;;-144.32;100.00;68061.97;10219788;28;20098;-80
2023/09/28 12:24:52;;;;;;;5.87;4.80;;;;;;;-144.32;100.00;68061.97;10219025;29;20035;-80
2023/09/28 12:29:52;;;;;;;6.95;5.32;;;;;;;-144.32;100.00;68061.97;10188778;28;20044;-80
2023/09/28 12:34:54;;;;;;;4.97;4.47;;;;;;;-144.32;100.00;68061.97;10215373;29;20082;-80
2023/09/28 12:39:54;;;;;;;;;;;;;;;-144.32;100.00;68061.97;10226016;29;20046;-81
2023/09/28 12:44:58;;;;;;;7.23;4.70;;;;;;;-144.32;100.00;68061.97;10213376;29;19961;-81
2023/09/28 12:49:59;;;;;;;4.63;4.20;;;;;;;-144.32;100.00;68061.97;10216383;29;20129;-79
2023/09/28 12:55:00;;;;;;;4.17;3.77;;;;;;;-144.32;100.00;68061.97;10207918;29;20048;-80
2023/09/28 13:00:00;;;;;;;4.23;3.83;;;;;;;-144.32;100.00;68061.97;10213627;29;20058;-82
2023/09/28 13:05:01;;;;;;;4.70;3.83;;;;;;;-144.32;100.00;68061.97;10204517;29;20051;-81
2023/09/28 13:10:07;;;;;;;5.60;4.23;;;;;;;-144.32;100.00;68061.97;10239658;28;20063;-80
2023/09/28 13:15:13;;;;;;;5.18;4.10;;;;;;;-144.32;100.00;68061.97;10240062;28;20075;-81
2023/09/28 13:20:52;;;;;;;4.95;4.35;;;;;;;-144.32;100.00;68061.97;10247598;28;20058;-81
2023/09/28 13:25:43;;;;;;;5.32;4.20;;;;;;;-144.32;100.00;68061.97;10254330;28;20102;-79
2023/09/28 13:30:44;;;;;;;4.53;3.67;;;;;;;-144.32;100.00;68061.97;10262377;28;20035;-79
2023/09/28 13:35:45;;;;;;;5.53;4.20;;;;;;;-144.32;100.00;68061.97;10218845;29;20051;-81
2023/09/28 13:40:45;;;;;;;4.57;3.50;;;;;;;-144.32;100.00;68061.97;10197647;29;20051;-80
2023/09/28 13:45:47;;;;;;;3.93;3.53;;;;;;;-144.32;100.00;68061.97;10230999;29;20180;-81
2023/09/28 13:50:48;;;;;;;4.18;3.67;;;;;;;-144.32;100.00;68061.97;10247916;28;20058;-80
2023/09/28 13:55:51;;;;;;;4.33;3.93;;;;;;;-144.32;100.00;68061.97;10230180;29;20050;-80
2023/09/28 14:00:53;;;;;;;4.28;3.88;;;;;;;-144.32;100.00;68061.97;10250441;28;20059;-79
2023/09/28 14:05:54;;;;;;;5.20;4.70;;;;;;;-144.32;100.00;68061.97;10251524;28;20031;-79
2023/09/28 14:10:54;;;;;;;3.60;3.17;;;;;;;-144.32;100.00;68061.97;10247954;29;20059;-79
2023/09/28 14:15:57;;;;;;;4.20;3.17;;;;;;;-144.32;100.00;68061.97;10257993;28;20031;-78
2023/09/28 14:20:58;;;;;;;4.07;3.35;;;;;;;-144.32;100.00;68061.97;10253907;28;20080;-80
2023/09/28 14:26:00;;;;;;;3.87;3.00;;;;;;;-144.32;100.00;68061.97;10242506;29;20579;-80
2023/09/28 14:31:02;;;;;;;3.20;2.90;;;;;;;-144.32;100.00;68061.97;10254496;29;20038;-81
2023/09/28 14:36:05;;;;;;;3.60;3.30;;;;;;;-144.32;100.00;68061.97;10262903;28;20047;-81
2023/09/28 14:41:06;;;;;;;4.20;3.75;;;;;;;-144.32;100.00;68061.97;10225062;29;20104;-83
2023/09/28 14:46:07;;;;;;;6.13;5.25;;;;;;;-144.32;100.00;68061.97;10219110;29;20051;-81
2023/09/28 14:51:07;;;;;;;5.67;5.00;;;;;;;-144.32;100.00;68061.97;10205581;28;20066;-83
2023/09/28 14:56:08;;;;;;;3.97;3.57;;;;;;;-144.32;100.00;68061.97;10214146;29;20055;-81
2023/09/28 15:01:08;;;;;;;4.57;3.47;;;;;;;-144.32;100.00;68061.97;10238100;29;20464;-83
2023/09/28 15:06:09;;;;;;;4.47;3.45;;;;;;;-144.32;100.00;68061.97;10228013;28;20501;-78
2023/09/28 15:11:09;;;;;;;18.05;6.63;;;;;;;-144.32;100.00;68061.97;10201188;29;20047;-75
2023/09/28 15:16:11;;;;;;;44.78;12.57;;;;;;;-144.32;100.00;68061.97;10204014;29;20075;-76
2023/09/28 15:21:12;;;;;;;9.70;5.40;;;;;;;-144.32;100.00;68061.97;10190499;29;20126;-80
2023/09/28 15:26:13;;;;;;;7.03;5.40;;;;;;;-144.32;100.00;68061.97;10214133;28;20126;-79
2023/09/28 15:31:14;;;;;;;8.88;7.63;;;;;;;-144.32;100.00;68061.97;10204531;28;20059;-79
2023/09/28 15:36:16;;;;;;;10.02;7.43;;;;;;;-144.32;100.00;68061.97;10208935;29;20118;-79
2023/09/28 15:41:36;;;;;;;6.20;4.25;;;;;;;-144.32;100.00;68061.97;10192532;28;20063;-78
2023/09/28 15:46:37;;;;;;;3.92;3.58;;;;;;;-144.32;100.00;68061.97;10199233;29;20058;-79
2023/09/28 15:51:37;;;;;;;3.72;3.42;;;;;;;-144.32;100.00;68061.97;10210308;28;20059;-75
2023/09/28 15:56:38;;;;;;;12.02;10.18;;;;;;;-144.32;100.00;68061.97;10211659;28;20124;-74
2023/09/28 16:01:41;;;;;;;10.95;9.70;;;;;;;-144.32;100.00;68061.97;10190228;29;20098;-77
2023/09/28 16:06:41;;;;;;;9.35;6.93;;;;;;;-144.32;100.00;68061.97;10204860;28;20043;-78
2023/09/28 16:11:42;;;;;;;6.70;6.00;;;;;;;-144.32;100.00;68061.97;10209802;28;20544;-79
2023/09/28 16:16:43;;;;;;;6.38;4.50;;;;;;;-144.32;100.00;68061.97;10198363;29;20046;-77
2023/09/28 16:21:43;;;;;;;5.32;4.82;;;;;;;-144.32;100.00;68061.97;10205103;29;20036;-78
2023/09/28 16:26:44;;;;;;;4.97;4.47;;;;;;;-144.32;100.00;68061.97;10190636;29;20056;-82
2023/09/28 16:31:44;;;;;;;6.00;4.78;;;;;;;-144.32;100.00;68061.97;10217691;29;20748;-79
2023/09/28 16:36:46;;;;;;;5.22;4.40;;;;;;;-144.32;100.00;68061.97;10178235;28;20774;-80
2023/09/28 16:41:47;;;;;;;12.00;8.68;;;;;;;-144.32;100.00;68061.97;10185939;28;20420;-79
2023/09/28 16:46:49;;;;;;;10.25;9.15;;;;;;;-144.32;100.00;68061.97;10208279;28;20043;-79
2023/09/28 16:51:50;;;;;;;8.32;7.40;;;;;;;-144.32;100.00;68061.97;10202930;29;20062;-76
2023/09/28 16:56:50;;;;;;;10.18;8.60;;;;;;;-144.32;100.00;68061.97;10175258;29;20067;-81
2023/09/28 17:01:51;;;;;;;8.30;7.28;;;;;;;-144.32;100.00;68061.97;10206812;29;20143;-77
2023/09/28 17:06:51;;;;;;;7.95;7.15;;;;;;;-144.32;100.00;68061.97;10216128;28;20673;-77
2023/09/28 17:11:52;;;;;;;7.03;6.30;;;;;;;-144.32;100.00;68061.97;10212102;29;20048;-79
2023/09/28 17:16:53;;;;;;;8.40;7.47;;;;;;;-144.32;100.00;68061.97;10220026;28;20047;-81
2023/09/28 17:21:54;;;;;;;7.40;6.22;;;;;;;-144.32;100.00;68061.97;10199311;29;20464;-79
2023/09/28 17:26:55;;;;;;;7.00;6.32;;;;;;;-144.32;100.00;68061.97;10215076;28;20119;-80
2023/09/28 17:31:56;;;;;;;6.60;5.93;;;;;;;-144.32;100.00;68061.97;10200770;28;20066;-80
2023/09/28 17:36:58;;;;;;;6.63;5.87;;;;;;;-144.32;100.00;68061.97;10204456;29;20054;-79
2023/09/28 17:41:59;;;;;;;8.43;7.53;;;;;;;-144.32;100.00;68061.97;10208179;29;20070;-80
2023/09/28 17:47:07;;;;;;;7.70;6.50;;;;;;;-144.32;100.00;68061.97;10194032;29;20400;-80
2023/09/28 17:52:07;;;;;;;7.20;6.38;;;;;;;-144.32;100.00;68061.97;10215360;29;21245;-80
2023/09/28 17:57:08;;;;;;;8.60;6.70;;;;;;;-144.32;100.00;68061.97;10223106;29;20047;-79
2023/09/28 18:02:11;;;;;;;7.78;6.80;;;;;;;-144.32;100.00;68061.97;10213736;28;20047;-79
2023/09/28 18:07:12;;;;;;;8.63;7.72;;;;;;;-144.32;100.00;68061.97;10212167;29;20504;-77
2023/09/28 18:12:14;;;;;;;11.23;10.00;;;;;;;-144.32;100.00;68061.97;10209477;28;20651;-79
2023/09/28 18:17:15;;;;;;;10.33;8.57;;;;;;;-144.32;100.00;68061.97;10226077;28;20043;-78
2023/09/28 18:22:15;;;;;;;9.45;7.95;;;;;;;-144.32;100.00;68061.97;10232488;29;20082;-82
2023/09/28 18:27:16;;;;;;;8.57;7.68;;;;;;;-144.32;100.00;68061.97;10199073;29;20536;-78
2023/09/28 18:32:19;;;;;;;7.68;6.88;;;;;;;-144.32;100.00;68061.97;10184731;29;20744;-80
2023/09/28 18:37:21;;;;;;;7.65;6.30;;;;;;;-144.32;100.00;68061.97;10199906;29;20047;-82
2023/09/28 18:42:21;;;;;;;7.00;5.85;;;;;;;-144.32;100.00;68061.97;10223616;28;20043;-80
2023/09/28 18:47:23;;;;;;;7.53;6.75;;;;;;;-144.32;100.00;68061.97;10239141;29;20055;-82
2023/09/28 18:52:24;;;;;;;7.80;7.00;;;;;;;-144.32;100.00;68061.97;10218295;28;20451;-79
2023/09/28 18:57:25;;;;;;;10.85;8.38;;;;;;;-144.32;100.00;68061.97;10186373;28;20050;-81
2023/09/28 19:02:27;;;;;;;12.98;11.57;;;;;;;-144.32;100.00;68061.97;10212243;28;21249;-80
2023/09/28 19:07:31;;;;;;;13.25;10.93;;;;;;;-144.32;100.00;68061.97;10189736;28;20047;-79
2023/09/28 19:12:32;;;;;;;7.63;6.95;;;;;;;-144.32;100.00;68061.97;10189482;28;20254;-77
2023/09/28 19:17:35;;;;;;;10.50;8.38;;;;;;;-144.32;100.00;68061.97;10203591;28;20039;-80
2023/09/28 19:22:36;;;;;;;9.13;8.18;;;;;;;-144.32;100.00;68061.97;10205885;29;20052;-78
2023/09/28 19:27:36;;;;;;;9.35;8.45;;;;;;;-144.32;100.00;68061.97;10210466;28;20055;-79
2023/09/28 19:32:37;;;;;;;7.75;6.95;;;;;;;-144.32;100.00;68061.97;10211110;29;20540;-80
2023/09/28 19:37:39;;;;;;;8.00;7.20;;;;;;;-144.32;100.00;68061.97;10211600;29;20067;-80
2023/09/28 19:42:47;;;;;;;9.38;8.15;;;;;;;-144.32;100.00;68061.97;10200632;29;20059;-80
2023/09/28 19:47:49;;;;;;;8.55;7.63;;;;;;;-144.32;100.00;68061.97;10209557;29;20130;-79
2023/09/28 19:52:49;;;;;;;8.40;7.22;;;;;;;-144.32;100.00;68061.97;10207100;29;20043;-80
2023/09/28 19:57:51;;;;;;;10.07;7.68;;;;;;;-144.32;100.00;68061.97;10219698;29;20143;-79
2023/09/28 20:02:52;;;;;;;9.00;8.13;;;;;;;-144.32;100.00;68061.97;10157320;29;20072;-80
2023/09/28 20:07:54;;;;;;;8.85;7.95;;;;;;;-144.32;100.00;68061.97;10201778;28;20321;-79
2023/09/28 20:13:02;;;;;;;9.40;8.38;;;;;;;-144.32;100.00;68061.97;10205569;29;20059;-82
2023/09/28 20:18:03;;;;;;;11.63;9.57;;;;;;;-144.32;100.00;68061.97;10182305;28;20142;-79
2023/09/28 20:23:04;;;;;;;9.10;8.20;;;;;;;-144.32;100.00;68061.97;10187332;29;20048;-78
2023/09/28 20:28:05;;;;;;;9.05;8.15;;;;;;;-144.32;100.00;68061.97;10195418;28;20066;-78
2023/09/28 20:33:08;;;;;;;8.13;7.20;;;;;;;-144.32;100.00;68061.97;10208547;29;20659;-78
2023/09/28 20:38:09;;;;;;;8.85;7.35;;;;;;;-144.32;100.00;68061.97;10195888;28;20071;-79
2023/09/28 20:43:12;;;;;;;10.18;7.68;;;;;;;-144.32;100.00;68061.97;10192486;29;20138;-79
2023/09/28 20:48:16;;;;;;;8.98;7.55;;;;;;;-144.32;100.00;68061.97;10190119;29;20044;-80
2023/09/28 20:53:17;;;;;;;8.55;7.65;;;;;;;-144.32;100.00;68061.97;10168121;29;20071;-79
2023/09/28 20:58:18;;;;;;;7.93;7.13;;;;;;;-144.32;100.00;68061.97;10205421;29;20047;-78
2023/09/28 21:03:19;;;;;;;7.90;7.05;;;;;;;-144.32;100.00;68061.97;10232173;29;20158;-78
2023/09/28 21:08:20;;;;;;;9.00;7.55;;;;;;;-144.32;100.00;68061.97;10209497;29;20493;-80
2023/09/28 21:13:20;;;;;;;10.10;7.15;;;;;;;-144.32;100.00;68061.97;10206850;29;20054;-81
2023/09/28 21:18:21;;;;;;;8.13;7.05;;;;;;;-144.32;100.00;68061.97;10210228;29;20050;-82
2023/09/28 21:23:22;;;;;;;8.40;6.80;;;;;;;-144.32;100.00;68061.97;10220107;29;20052;-80
2023/09/28 21:28:22;;;;;;;8.95;7.40;;;;;;;-144.32;100.00;68061.97;10219795;29;20063;-80
2023/09/28 21:33:23;;;;;;;8.57;7.25;;;;;;;-144.32;100.00;68061.97;10209816;29;20079;-79
2023/09/28 21:38:23;;;;;;;7.35;6.57;;;;;;;-144.32;100.00;68061.97;10191832;29;20054;-80
2023/09/28 21:43:25;;;;;;;8.20;7.20;;;;;;;-144.32;100.00;68061.97;10203778;29;20043;-79
2023/09/28 21:48:26;;;;;;;8.93;7.18;;;;;;;-144.32;100.00;68061.97;10205002;28;20056;-79
2023/09/28 21:53:28;;;;;;;8.95;7.50;;;;;;;-144.32;100.00;68061.97;10212896;29;20419;-80
2023/09/28 21:58:29;;;;;;;9.10;7.30;;;;;;;-144.32;100.00;68061.97;10188908;28;20040;-79
2023/09/28 22:03:29;;;;;;;8.13;6.80;;;;;;;-144.32;100.00;68061.97;10205929;28;20053;-79
2023/09/28 22:08:31;;;;;;;9.10;7.30;;;;;;;-144.32;100.00;68061.97;10188633;29;20055;-78
2023/09/28 22:13:32;;;;;;;6.72;6.10;;;;;;;-144.32;100.00;68061.97;10173912;28;20048;-78
2023/09/28 22:18:32;;;;;;;8.13;6.75;;;;;;;-144.32;100.00;68061.97;10219956;28;20054;-78